sensor_id;sensor_type;location;lat;lon;timestamp;temperature;humidity
60469;DHT22;46316;47.582;10.238;2022-08-19T00:01:27;16.90;89.70
60469;DHT22;46316;47.582;10.238;2022-08-19T00:03:55;16.90;89.80
60469;DHT22;46316;47.582;10.238;2022-08-19T00:06:20;16.80;89.40
60469;DHT22;46316;47.582;10.238;2022-08-19T00:08:46;16.90;89.50
60469;DHT22;46316;47.582;10.238;2022-08-19T00:11:13;16.80;89.60
60469;DHT22;46316;47.582;10.238;2022-08-19T00:13:39;16.80;89.60
60469;DHT22;46316;47.582;10.238;2022-08-19T00:16:06;16.80;89.70
60469;DHT22;46316;47.582;10.238;2022-08-19T00:18:33;16.90;89.90
60469;DHT22;46316;47.582;10.238;2022-08-19T00:20:59;16.90;89.90
60469;DHT22;46316;47.582;10.238;2022-08-19T00:23:25;16.90;89.80
60469;DHT22;46316;47.582;10.238;2022-08-19T00:25:50;16.90;89.80
60469;DHT22;46316;47.582;10.238;2022-08-19T00:28:17;16.90;89.90
60469;DHT22;46316;47.582;10.238;2022-08-19T00:30:43;16.90;89.60
60469;DHT22;46316;47.582;10.238;2022-08-19T00:33:08;16.90;89.50
60469;DHT22;46316;47.582;10.238;2022-08-19T00:35:34;16.90;89.60
60469;DHT22;46316;47.582;10.238;2022-08-19T00:37:59;16.90;89.70
60469;DHT22;46316;47.582;10.238;2022-08-19T00:40:26;16.90;89.90
60469;DHT22;46316;47.582;10.238;2022-08-19T00:42:52;16.90;89.90
60469;DHT22;46316;47.582;10.238;2022-08-19T00:45:24;16.90;89.90
60469;DHT22;46316;47.582;10.238;2022-08-19T00:47:50;16.90;89.90
60469;DHT22;46316;47.582;10.238;2022-08-19T00:50:20;16.90;89.90
60469;DHT22;46316;47.582;10.238;2022-08-19T00:52:49;16.90;89.90
60469;DHT22;46316;47.582;10.238;2022-08-19T00:55:21;16.90;90.00
60469;DHT22;46316;47.582;10.238;2022-08-19T00:57:53;16.90;89.90
60469;DHT22;46316;47.582;10.238;2022-08-19T01:00:23;16.90;89.80
60469;DHT22;46316;47.582;10.238;2022-08-19T01:02:49;16.90;89.70
60469;DHT22;46316;47.582;10.238;2022-08-19T01:05:18;16.90;89.80
60469;DHT22;46316;47.582;10.238;2022-08-19T01:07:45;16.90;89.70
60469;DHT22;46316;47.582;10.238;2022-08-19T01:10:13;16.90;89.60
60469;DHT22;46316;47.582;10.238;2022-08-19T01:12:39;16.90;89.50
60469;DHT22;46316;47.582;10.238;2022-08-19T01:15:07;16.90;89.50
60469;DHT22;46316;47.582;10.238;2022-08-19T01:17:36;16.90;89.50
60469;DHT22;46316;47.582;10.238;2022-08-19T01:20:04;16.90;89.50
60469;DHT22;46316;47.582;10.238;2022-08-19T01:22:38;16.90;89.50
60469;DHT22;46316;47.582;10.238;2022-08-19T01:25:07;16.80;89.50
60469;DHT22;46316;47.582;10.238;2022-08-19T01:27:40;16.80;89.60
60469;DHT22;46316;47.582;10.238;2022-08-19T01:30:07;16.70;89.50
60469;DHT22;46316;47.582;10.238;2022-08-19T01:32:33;16.60;89.50
60469;DHT22;46316;47.582;10.238;2022-08-19T01:34:58;16.60;89.80
60469;DHT22;46316;47.582;10.238;2022-08-19T01:37:26;16.60;89.80
60469;DHT22;46316;47.582;10.238;2022-08-19T01:39:52;16.60;89.70
60469;DHT22;46316;47.582;10.238;2022-08-19T01:42:18;16.60;89.40
60469;DHT22;46316;47.582;10.238;2022-08-19T01:44:45;16.60;89.50
60469;DHT22;46316;47.582;10.238;2022-08-19T01:47:11;16.60;89.70
60469;DHT22;46316;47.582;10.238;2022-08-19T01:49:37;16.60;89.60
60469;DHT22;46316;47.582;10.238;2022-08-19T01:52:03;16.60;89.80
60469;DHT22;46316;47.582;10.238;2022-08-19T01:54:29;16.50;89.80
60469;DHT22;46316;47.582;10.238;2022-08-19T01:57:00;16.50;90.00
60469;DHT22;46316;47.582;10.238;2022-08-19T01:59:26;16.50;90.20
60469;DHT22;46316;47.582;10.238;2022-08-19T02:01:52;16.40;90.10
60469;DHT22;46316;47.582;10.238;2022-08-19T02:04:18;16.40;90.20
60469;DHT22;46316;47.582;10.238;2022-08-19T02:06:43;16.40;90.20
60469;DHT22;46316;47.582;10.238;2022-08-19T02:09:09;16.40;90.30
60469;DHT22;46316;47.582;10.238;2022-08-19T02:11:36;16.40;90.30
60469;DHT22;46316;47.582;10.238;2022-08-19T02:14:05;16.40;90.30
60469;DHT22;46316;47.582;10.238;2022-08-19T02:16:31;16.40;90.50
60469;DHT22;46316;47.582;10.238;2022-08-19T02:18:58;16.40;90.50
60469;DHT22;46316;47.582;10.238;2022-08-19T02:21:26;16.40;90.40
60469;DHT22;46316;47.582;10.238;2022-08-19T02:23:52;16.40;90.50
60469;DHT22;46316;47.582;10.238;2022-08-19T02:26:18;16.40;90.40
60469;DHT22;46316;47.582;10.238;2022-08-19T02:28:44;16.40;90.50
60469;DHT22;46316;47.582;10.238;2022-08-19T02:31:16;16.40;90.50
60469;DHT22;46316;47.582;10.238;2022-08-19T02:33:43;16.40;90.50
60469;DHT22;46316;47.582;10.238;2022-08-19T02:36:11;16.40;90.50
60469;DHT22;46316;47.582;10.238;2022-08-19T02:38:37;16.40;90.50
60469;DHT22;46316;47.582;10.238;2022-08-19T02:41:06;16.40;90.60
60469;DHT22;46316;47.582;10.238;2022-08-19T02:43:33;16.40;90.70
60469;DHT22;46316;47.582;10.238;2022-08-19T02:46:11;16.40;90.40
60469;DHT22;46316;47.582;10.238;2022-08-19T02:48:37;16.40;90.30
60469;DHT22;46316;47.582;10.238;2022-08-19T02:51:02;16.40;90.10
60469;DHT22;46316;47.582;10.238;2022-08-19T02:53:28;16.40;90.30
60469;DHT22;46316;47.582;10.238;2022-08-19T02:55:54;16.40;90.20
60469;DHT22;46316;47.582;10.238;2022-08-19T02:58:21;16.40;90.50
60469;DHT22;46316;47.582;10.238;2022-08-19T03:00:50;16.40;90.70
60469;DHT22;46316;47.582;10.238;2022-08-19T03:03:17;16.40;90.80
60469;DHT22;46316;47.582;10.238;2022-08-19T03:05:43;16.40;90.80
60469;DHT22;46316;47.582;10.238;2022-08-19T03:08:10;16.40;90.80
60469;DHT22;46316;47.582;10.238;2022-08-19T03:10:46;16.40;91.00
60469;DHT22;46316;47.582;10.238;2022-08-19T03:13:14;16.40;90.90
60469;DHT22;46316;47.582;10.238;2022-08-19T03:15:42;16.40;90.80
60469;DHT22;46316;47.582;10.238;2022-08-19T03:18:09;16.40;90.70
60469;DHT22;46316;47.582;10.238;2022-08-19T03:20:43;16.30;90.80
60469;DHT22;46316;47.582;10.238;2022-08-19T03:23:09;16.30;90.60
60469;DHT22;46316;47.582;10.238;2022-08-19T03:25:40;16.30;90.70
60469;DHT22;46316;47.582;10.238;2022-08-19T03:28:11;16.30;90.50
60469;DHT22;46316;47.582;10.238;2022-08-19T03:30:38;16.30;90.60
60469;DHT22;46316;47.582;10.238;2022-08-19T03:33:06;16.30;90.90
60469;DHT22;46316;47.582;10.238;2022-08-19T03:35:33;16.30;90.90
60469;DHT22;46316;47.582;10.238;2022-08-19T03:37:59;16.30;91.10
60469;DHT22;46316;47.582;10.238;2022-08-19T03:40:25;16.30;91.10
60469;DHT22;46316;47.582;10.238;2022-08-19T03:42:51;16.20;90.70
60469;DHT22;46316;47.582;10.238;2022-08-19T03:45:16;16.20;90.90
60469;DHT22;46316;47.582;10.238;2022-08-19T03:47:42;16.20;91.10
60469;DHT22;46316;47.582;10.238;2022-08-19T03:50:08;16.20;91.30
60469;DHT22;46316;47.582;10.238;2022-08-19T03:52:34;16.20;91.40
60469;DHT22;46316;47.582;10.238;2022-08-19T03:55:01;16.20;91.50
60469;DHT22;46316;47.582;10.238;2022-08-19T03:57:27;16.20;91.30
60469;DHT22;46316;47.582;10.238;2022-08-19T03:59:52;16.20;91.50
60469;DHT22;46316;47.582;10.238;2022-08-19T04:02:18;16.20;91.50
60469;DHT22;46316;47.582;10.238;2022-08-19T04:04:44;16.20;91.50
60469;DHT22;46316;47.582;10.238;2022-08-19T04:07:11;16.20;91.60
60469;DHT22;46316;47.582;10.238;2022-08-19T04:09:38;16.30;91.60
60469;DHT22;46316;47.582;10.238;2022-08-19T04:12:04;16.20;91.60
60469;DHT22;46316;47.582;10.238;2022-08-19T04:14:31;16.20;91.40
60469;DHT22;46316;47.582;10.238;2022-08-19T04:16:59;16.20;91.40
60469;DHT22;46316;47.582;10.238;2022-08-19T04:19:25;16.20;91.30
60469;DHT22;46316;47.582;10.238;2022-08-19T04:21:53;16.20;91.50
60469;DHT22;46316;47.582;10.238;2022-08-19T04:24:20;16.20;91.50
60469;DHT22;46316;47.582;10.238;2022-08-19T04:26:46;16.30;91.30
60469;DHT22;46316;47.582;10.238;2022-08-19T04:29:19;16.30;91.10
60469;DHT22;46316;47.582;10.238;2022-08-19T04:31:46;16.30;91.20
60469;DHT22;46316;47.582;10.238;2022-08-19T04:34:14;16.40;91.20
60469;DHT22;46316;47.582;10.238;2022-08-19T04:36:41;16.40;90.70
60469;DHT22;46316;47.582;10.238;2022-08-19T04:39:11;16.40;90.50
60469;DHT22;46316;47.582;10.238;2022-08-19T04:41:37;16.40;90.20
60469;DHT22;46316;47.582;10.238;2022-08-19T04:44:21;16.40;89.90
60469;DHT22;46316;47.582;10.238;2022-08-19T04:46:48;16.40;90.10
60469;DHT22;46316;47.582;10.238;2022-08-19T04:49:14;16.40;90.30
60469;DHT22;46316;47.582;10.238;2022-08-19T04:51:42;16.50;90.20
60469;DHT22;46316;47.582;10.238;2022-08-19T04:54:08;16.50;90.40
60469;DHT22;46316;47.582;10.238;2022-08-19T04:56:34;16.60;90.40
60469;DHT22;46316;47.582;10.238;2022-08-19T04:59:00;16.60;90.10
60469;DHT22;46316;47.582;10.238;2022-08-19T05:01:30;16.60;89.90
60469;DHT22;46316;47.582;10.238;2022-08-19T05:03:58;16.70;89.90
60469;DHT22;46316;47.582;10.238;2022-08-19T05:06:24;16.70;90.10
60469;DHT22;46316;47.582;10.238;2022-08-19T05:08:50;16.70;90.20
60469;DHT22;46316;47.582;10.238;2022-08-19T05:11:26;16.80;90.20
60469;DHT22;46316;47.582;10.238;2022-08-19T05:13:53;16.80;90.40
60469;DHT22;46316;47.582;10.238;2022-08-19T05:16:21;16.90;90.30
60469;DHT22;46316;47.582;10.238;2022-08-19T05:18:47;17.10;90.00
60469;DHT22;46316;47.582;10.238;2022-08-19T05:21:32;17.20;89.40
60469;DHT22;46316;47.582;10.238;2022-08-19T05:24:19;17.40;88.70
60469;DHT22;46316;47.582;10.238;2022-08-19T05:26:48;17.50;87.50
60469;DHT22;46316;47.582;10.238;2022-08-19T05:29:17;17.80;87.10
60469;DHT22;46316;47.582;10.238;2022-08-19T05:31:43;18.00;86.30
60469;DHT22;46316;47.582;10.238;2022-08-19T05:34:09;18.10;85.70
60469;DHT22;46316;47.582;10.238;2022-08-19T05:36:39;18.30;85.00
60469;DHT22;46316;47.582;10.238;2022-08-19T05:39:20;18.30;85.20
60469;DHT22;46316;47.582;10.238;2022-08-19T05:41:50;18.30;84.50
60469;DHT22;46316;47.582;10.238;2022-08-19T05:44:18;18.40;84.20
60469;DHT22;46316;47.582;10.238;2022-08-19T05:46:44;18.30;84.40
60469;DHT22;46316;47.582;10.238;2022-08-19T05:49:12;18.40;84.40
60469;DHT22;46316;47.582;10.238;2022-08-19T05:51:38;18.40;84.30
60469;DHT22;46316;47.582;10.238;2022-08-19T05:54:05;18.40;84.40
60469;DHT22;46316;47.582;10.238;2022-08-19T05:56:31;18.40;84.10
60469;DHT22;46316;47.582;10.238;2022-08-19T05:58:57;18.50;83.60
60469;DHT22;46316;47.582;10.238;2022-08-19T06:01:25;18.50;83.70
60469;DHT22;46316;47.582;10.238;2022-08-19T06:03:51;18.50;83.50
60469;DHT22;46316;47.582;10.238;2022-08-19T06:06:17;18.50;83.70
60469;DHT22;46316;47.582;10.238;2022-08-19T06:08:43;18.50;84.00
60469;DHT22;46316;47.582;10.238;2022-08-19T06:11:18;18.40;83.60
60469;DHT22;46316;47.582;10.238;2022-08-19T06:13:46;18.40;84.20
60469;DHT22;46316;47.582;10.238;2022-08-19T06:16:19;18.20;84.40
60469;DHT22;46316;47.582;10.238;2022-08-19T06:18:52;18.10;84.90
60469;DHT22;46316;47.582;10.238;2022-08-19T06:21:23;18.00;85.40
60469;DHT22;46316;47.582;10.238;2022-08-19T06:23:50;18.00;85.50
60469;DHT22;46316;47.582;10.238;2022-08-19T06:26:18;17.90;85.30
60469;DHT22;46316;47.582;10.238;2022-08-19T06:28:45;17.90;85.40
60469;DHT22;46316;47.582;10.238;2022-08-19T06:31:21;17.80;85.60
60469;DHT22;46316;47.582;10.238;2022-08-19T06:33:48;17.80;86.20
60469;DHT22;46316;47.582;10.238;2022-08-19T06:36:22;17.70;86.30
60469;DHT22;46316;47.582;10.238;2022-08-19T06:38:50;17.70;86.40
60469;DHT22;46316;47.582;10.238;2022-08-19T06:41:16;17.60;86.40
60469;DHT22;46316;47.582;10.238;2022-08-19T06:43:42;17.60;86.40
60469;DHT22;46316;47.582;10.238;2022-08-19T06:46:16;17.50;86.70
60469;DHT22;46316;47.582;10.238;2022-08-19T06:48:44;17.40;86.70
60469;DHT22;46316;47.582;10.238;2022-08-19T06:51:10;17.40;86.80
60469;DHT22;46316;47.582;10.238;2022-08-19T06:53:36;17.40;87.00
60469;DHT22;46316;47.582;10.238;2022-08-19T06:56:02;17.40;87.30
60469;DHT22;46316;47.582;10.238;2022-08-19T06:58:31;17.40;87.30
60469;DHT22;46316;47.582;10.238;2022-08-19T07:01:02;17.30;87.50
60469;DHT22;46316;47.582;10.238;2022-08-19T07:03:33;17.30;87.50
60469;DHT22;46316;47.582;10.238;2022-08-19T07:06:12;17.30;87.60
60469;DHT22;46316;47.582;10.238;2022-08-19T07:08:40;17.30;87.80
60469;DHT22;46316;47.582;10.238;2022-08-19T07:11:07;17.30;88.10
60469;DHT22;46316;47.582;10.238;2022-08-19T07:13:34;17.40;88.10
60469;DHT22;46316;47.582;10.238;2022-08-19T07:16:06;17.40;88.00
60469;DHT22;46316;47.582;10.238;2022-08-19T07:18:32;17.40;88.00
60469;DHT22;46316;47.582;10.238;2022-08-19T07:21:13;17.40;87.90
60469;DHT22;46316;47.582;10.238;2022-08-19T07:23:39;17.30;87.70
60469;DHT22;46316;47.582;10.238;2022-08-19T07:26:28;17.30;88.00
60469;DHT22;46316;47.582;10.238;2022-08-19T07:28:56;17.30;88.20
60469;DHT22;46316;47.582;10.238;2022-08-19T07:31:24;17.40;88.20
60469;DHT22;46316;47.582;10.238;2022-08-19T07:33:52;17.40;88.10
60469;DHT22;46316;47.582;10.238;2022-08-19T07:36:24;17.60;88.20
60469;DHT22;46316;47.582;10.238;2022-08-19T07:38:51;17.70;88.10
60469;DHT22;46316;47.582;10.238;2022-08-19T07:41:22;17.70;87.90
60469;DHT22;46316;47.582;10.238;2022-08-19T07:43:48;17.80;87.60
60469;DHT22;46316;47.582;10.238;2022-08-19T07:46:15;17.90;87.60
60469;DHT22;46316;47.582;10.238;2022-08-19T07:48:43;17.90;87.60
60469;DHT22;46316;47.582;10.238;2022-08-19T07:51:11;17.90;87.60
60469;DHT22;46316;47.582;10.238;2022-08-19T07:53:37;18.10;87.30
60469;DHT22;46316;47.582;10.238;2022-08-19T07:56:04;18.20;86.40
60469;DHT22;46316;47.582;10.238;2022-08-19T07:58:33;18.20;86.40
60469;DHT22;46316;47.582;10.238;2022-08-19T08:00:59;18.20;87.00
60469;DHT22;46316;47.582;10.238;2022-08-19T08:03:27;18.30;87.00
60469;DHT22;46316;47.582;10.238;2022-08-19T08:06:14;18.40;86.90
60469;DHT22;46316;47.582;10.238;2022-08-19T08:08:59;18.40;86.90
60469;DHT22;46316;47.582;10.238;2022-08-19T08:11:57;18.40;86.30
60469;DHT22;46316;47.582;10.238;2022-08-19T08:14:27;18.40;86.30
60469;DHT22;46316;47.582;10.238;2022-08-19T08:16:53;18.40;85.80
60469;DHT22;46316;47.582;10.238;2022-08-19T08:19:21;18.40;86.00
60469;DHT22;46316;47.582;10.238;2022-08-19T08:21:48;18.40;86.10
60469;DHT22;46316;47.582;10.238;2022-08-19T08:24:14;18.20;86.00
60469;DHT22;46316;47.582;10.238;2022-08-19T08:26:40;18.10;85.80
60469;DHT22;46316;47.582;10.238;2022-08-19T08:29:06;18.00;86.50
60469;DHT22;46316;47.582;10.238;2022-08-19T08:31:34;18.00;86.70
60469;DHT22;46316;47.582;10.238;2022-08-19T08:34:00;17.90;86.80
60469;DHT22;46316;47.582;10.238;2022-08-19T08:36:25;17.90;87.10
60469;DHT22;46316;47.582;10.238;2022-08-19T08:38:52;17.90;87.00
60469;DHT22;46316;47.582;10.238;2022-08-19T08:41:27;17.80;87.30
60469;DHT22;46316;47.582;10.238;2022-08-19T08:43:54;17.80;87.20
60469;DHT22;46316;47.582;10.238;2022-08-19T08:46:39;17.70;87.60
60469;DHT22;46316;47.582;10.238;2022-08-19T08:49:24;17.60;87.90
60469;DHT22;46316;47.582;10.238;2022-08-19T08:52:07;17.60;88.20
60469;DHT22;46316;47.582;10.238;2022-08-19T08:54:44;17.60;88.30
60469;DHT22;46316;47.582;10.238;2022-08-19T08:57:14;17.50;88.30
60469;DHT22;46316;47.582;10.238;2022-08-19T08:59:42;17.50;88.60
60469;DHT22;46316;47.582;10.238;2022-08-19T09:02:08;17.50;88.90
60469;DHT22;46316;47.582;10.238;2022-08-19T09:04:36;17.60;89.10
60469;DHT22;46316;47.582;10.238;2022-08-19T09:07:16;17.60;89.00
60469;DHT22;46316;47.582;10.238;2022-08-19T09:09:48;17.60;89.10
60469;DHT22;46316;47.582;10.238;2022-08-19T09:12:31;17.60;88.90
60469;DHT22;46316;47.582;10.238;2022-08-19T09:15:02;17.70;89.00
60469;DHT22;46316;47.582;10.238;2022-08-19T09:17:31;17.70;89.00
60469;DHT22;46316;47.582;10.238;2022-08-19T09:22:37;17.80;88.50
60469;DHT22;46316;47.582;10.238;2022-08-19T09:25:05;17.80;88.40
60469;DHT22;46316;47.582;10.238;2022-08-19T09:27:31;17.80;88.20
60469;DHT22;46316;47.582;10.238;2022-08-19T09:29:57;17.90;88.30
60469;DHT22;46316;47.582;10.238;2022-08-19T09:32:23;17.90;88.10
60469;DHT22;46316;47.582;10.238;2022-08-19T09:34:52;18.00;88.20
60469;DHT22;46316;47.582;10.238;2022-08-19T09:37:20;18.00;88.00
60469;DHT22;46316;47.582;10.238;2022-08-19T09:39:47;18.10;88.10
60469;DHT22;46316;47.582;10.238;2022-08-19T09:42:12;18.30;88.10
60469;DHT22;46316;47.582;10.238;2022-08-19T09:44:40;18.40;87.20
60469;DHT22;46316;47.582;10.238;2022-08-19T09:47:06;18.40;86.80
60469;DHT22;46316;47.582;10.238;2022-08-19T09:49:32;18.40;87.10
60469;DHT22;46316;47.582;10.238;2022-08-19T09:51:58;18.40;86.40
60469;DHT22;46316;47.582;10.238;2022-08-19T09:54:25;18.50;86.70
60469;DHT22;46316;47.582;10.238;2022-08-19T09:56:51;18.50;86.80
60469;DHT22;46316;47.582;10.238;2022-08-19T09:59:17;18.50;86.70
60469;DHT22;46316;47.582;10.238;2022-08-19T10:01:42;18.50;86.60
60469;DHT22;46316;47.582;10.238;2022-08-19T10:04:08;18.40;86.50
60469;DHT22;46316;47.582;10.238;2022-08-19T10:06:35;18.40;86.80
60469;DHT22;46316;47.582;10.238;2022-08-19T10:09:01;18.20;87.30
60469;DHT22;46316;47.582;10.238;2022-08-19T10:11:29;18.10;87.20
60469;DHT22;46316;47.582;10.238;2022-08-19T10:13:55;18.00;87.30
60469;DHT22;46316;47.582;10.238;2022-08-19T10:16:22;17.90;87.60
60469;DHT22;46316;47.582;10.238;2022-08-19T10:18:49;17.90;88.20
60469;DHT22;46316;47.582;10.238;2022-08-19T10:21:22;17.90;88.50
60469;DHT22;46316;47.582;10.238;2022-08-19T10:23:50;17.90;88.50
60469;DHT22;46316;47.582;10.238;2022-08-19T10:26:19;17.90;88.40
60469;DHT22;46316;47.582;10.238;2022-08-19T10:28:45;17.90;88.50
60469;DHT22;46316;47.582;10.238;2022-08-19T10:31:17;17.90;88.60
60469;DHT22;46316;47.582;10.238;2022-08-19T10:33:45;17.80;88.60
60469;DHT22;46316;47.582;10.238;2022-08-19T10:36:16;17.90;88.80
60469;DHT22;46316;47.582;10.238;2022-08-19T10:38:48;17.80;88.50
60469;DHT22;46316;47.582;10.238;2022-08-19T10:41:18;17.80;88.50
60469;DHT22;46316;47.582;10.238;2022-08-19T10:43:44;17.90;88.70
60469;DHT22;46316;47.582;10.238;2022-08-19T10:46:13;17.90;88.70
60469;DHT22;46316;47.582;10.238;2022-08-19T10:48:40;17.90;88.70
60469;DHT22;46316;47.582;10.238;2022-08-19T10:51:06;17.90;88.20
60469;DHT22;46316;47.582;10.238;2022-08-19T10:53:51;17.90;88.40
60469;DHT22;46316;47.582;10.238;2022-08-19T10:56:18;17.90;88.60
60469;DHT22;46316;47.582;10.238;2022-08-19T10:59:03;18.00;88.80
60469;DHT22;46316;47.582;10.238;2022-08-19T11:01:29;18.00;88.40
60469;DHT22;46316;47.582;10.238;2022-08-19T11:03:56;18.10;88.40
60469;DHT22;46316;47.582;10.238;2022-08-19T11:06:22;18.10;88.50
60469;DHT22;46316;47.582;10.238;2022-08-19T11:08:50;18.10;88.40
60469;DHT22;46316;47.582;10.238;2022-08-19T11:11:16;18.00;88.10
60469;DHT22;46316;47.582;10.238;2022-08-19T11:13:42;18.00;88.40
60469;DHT22;46316;47.582;10.238;2022-08-19T11:16:12;18.00;88.40
60469;DHT22;46316;47.582;10.238;2022-08-19T11:18:42;18.00;88.50
60469;DHT22;46316;47.582;10.238;2022-08-19T11:21:15;18.00;88.50
60469;DHT22;46316;47.582;10.238;2022-08-19T11:23:45;17.90;88.50
60469;DHT22;46316;47.582;10.238;2022-08-19T11:26:10;17.90;88.30
60469;DHT22;46316;47.582;10.238;2022-08-19T11:28:36;17.90;88.20
60469;DHT22;46316;47.582;10.238;2022-08-19T11:31:02;17.90;88.20
60469;DHT22;46316;47.582;10.238;2022-08-19T11:33:29;18.00;88.40
60469;DHT22;46316;47.582;10.238;2022-08-19T11:35:58;18.00;88.10
60469;DHT22;46316;47.582;10.238;2022-08-19T11:38:25;18.00;88.10
60469;DHT22;46316;47.582;10.238;2022-08-19T11:41:03;18.10;88.30
60469;DHT22;46316;47.582;10.238;2022-08-19T11:43:29;18.10;88.00
60469;DHT22;46316;47.582;10.238;2022-08-19T11:45:56;18.20;88.10
60469;DHT22;46316;47.582;10.238;2022-08-19T11:48:22;18.20;88.10
60469;DHT22;46316;47.582;10.238;2022-08-19T11:50:52;18.10;88.10
60469;DHT22;46316;47.582;10.238;2022-08-19T11:53:18;18.20;88.00
60469;DHT22;46316;47.582;10.238;2022-08-19T11:55:46;18.20;88.20
60469;DHT22;46316;47.582;10.238;2022-08-19T11:58:12;18.40;87.70
60469;DHT22;46316;47.582;10.238;2022-08-19T12:00:39;18.30;87.50
60469;DHT22;46316;47.582;10.238;2022-08-19T12:03:06;18.20;87.60
60469;DHT22;46316;47.582;10.238;2022-08-19T12:05:31;18.20;87.50
60469;DHT22;46316;47.582;10.238;2022-08-19T12:07:57;18.10;87.90
60469;DHT22;46316;47.582;10.238;2022-08-19T12:10:23;18.00;88.10
60469;DHT22;46316;47.582;10.238;2022-08-19T12:12:48;18.00;88.40
60469;DHT22;46316;47.582;10.238;2022-08-19T12:15:14;18.00;88.30
60469;DHT22;46316;47.582;10.238;2022-08-19T12:17:41;18.00;88.60
60469;DHT22;46316;47.582;10.238;2022-08-19T12:20:08;18.00;88.60
60469;DHT22;46316;47.582;10.238;2022-08-19T12:22:35;17.90;88.90
60469;DHT22;46316;47.582;10.238;2022-08-19T12:25:01;17.90;89.20
60469;DHT22;46316;47.582;10.238;2022-08-19T12:27:26;17.90;89.00
60469;DHT22;46316;47.582;10.238;2022-08-19T12:29:52;17.90;88.40
60469;DHT22;46316;47.582;10.238;2022-08-19T12:32:17;17.90;88.60
60469;DHT22;46316;47.582;10.238;2022-08-19T12:34:43;17.90;88.60
60469;DHT22;46316;47.582;10.238;2022-08-19T12:37:09;17.90;88.90
60469;DHT22;46316;47.582;10.238;2022-08-19T12:39:38;17.80;88.90
60469;DHT22;46316;47.582;10.238;2022-08-19T12:42:04;17.80;88.90
60469;DHT22;46316;47.582;10.238;2022-08-19T12:44:30;17.80;88.80
60469;DHT22;46316;47.582;10.238;2022-08-19T12:46:58;17.70;88.50
60469;DHT22;46316;47.582;10.238;2022-08-19T12:49:23;17.80;88.30
60469;DHT22;46316;47.582;10.238;2022-08-19T12:51:50;17.80;88.60
60469;DHT22;46316;47.582;10.238;2022-08-19T12:54:15;17.80;89.00
60469;DHT22;46316;47.582;10.238;2022-08-19T12:56:41;17.90;89.10
60469;DHT22;46316;47.582;10.238;2022-08-19T12:59:07;17.80;89.10
60469;DHT22;46316;47.582;10.238;2022-08-19T13:01:34;17.90;88.30
60469;DHT22;46316;47.582;10.238;2022-08-19T13:03:59;17.80;88.50
60469;DHT22;46316;47.582;10.238;2022-08-19T13:06:26;17.80;88.40
60469;DHT22;46316;47.582;10.238;2022-08-19T13:08:51;17.80;88.40
60469;DHT22;46316;47.582;10.238;2022-08-19T13:11:19;17.70;88.80
60469;DHT22;46316;47.582;10.238;2022-08-19T13:13:48;17.70;89.10
60469;DHT22;46316;47.582;10.238;2022-08-19T13:16:15;17.70;89.20
60469;DHT22;46316;47.582;10.238;2022-08-19T13:18:42;17.70;88.50
60469;DHT22;46316;47.582;10.238;2022-08-19T13:21:10;17.70;88.80
60469;DHT22;46316;47.582;10.238;2022-08-19T13:23:39;17.70;89.10
60469;DHT22;46316;47.582;10.238;2022-08-19T13:26:06;17.70;88.60
60469;DHT22;46316;47.582;10.238;2022-08-19T13:28:33;17.70;89.00
60469;DHT22;46316;47.582;10.238;2022-08-19T13:31:19;17.60;89.30
60469;DHT22;46316;47.582;10.238;2022-08-19T13:34:04;17.50;89.30
60469;DHT22;46316;47.582;10.238;2022-08-19T13:36:33;17.40;88.80
60469;DHT22;46316;47.582;10.238;2022-08-19T13:38:59;17.30;89.00
60469;DHT22;46316;47.582;10.238;2022-08-19T13:41:26;17.20;88.80
60469;DHT22;46316;47.582;10.238;2022-08-19T13:43:52;17.00;89.30
60469;DHT22;46316;47.582;10.238;2022-08-19T13:46:17;16.90;89.10
60469;DHT22;46316;47.582;10.238;2022-08-19T13:48:45;16.90;89.10
60469;DHT22;46316;47.582;10.238;2022-08-19T13:51:11;16.80;89.00
60469;DHT22;46316;47.582;10.238;2022-08-19T13:53:37;16.80;89.20
60469;DHT22;46316;47.582;10.238;2022-08-19T13:56:07;16.70;90.10
60469;DHT22;46316;47.582;10.238;2022-08-19T13:58:33;16.70;90.70
60469;DHT22;46316;47.582;10.238;2022-08-19T14:00:59;16.70;91.00
60469;DHT22;46316;47.582;10.238;2022-08-19T14:03:26;16.70;90.90
60469;DHT22;46316;47.582;10.238;2022-08-19T14:05:51;16.70;90.90
60469;DHT22;46316;47.582;10.238;2022-08-19T14:08:17;16.70;90.80
60469;DHT22;46316;47.582;10.238;2022-08-19T14:10:43;16.70;90.80
60469;DHT22;46316;47.582;10.238;2022-08-19T14:13:10;16.80;91.20
60469;DHT22;46316;47.582;10.238;2022-08-19T14:15:37;16.80;91.20
60469;DHT22;46316;47.582;10.238;2022-08-19T14:18:03;16.90;91.20
60469;DHT22;46316;47.582;10.238;2022-08-19T14:20:29;16.90;90.70
60469;DHT22;46316;47.582;10.238;2022-08-19T14:22:54;16.80;90.80
60469;DHT22;46316;47.582;10.238;2022-08-19T14:25:24;16.80;90.60
60469;DHT22;46316;47.582;10.238;2022-08-19T14:27:50;16.90;90.70
60469;DHT22;46316;47.582;10.238;2022-08-19T14:30:21;16.90;90.50
60469;DHT22;46316;47.582;10.238;2022-08-19T14:32:46;16.90;90.30
60469;DHT22;46316;47.582;10.238;2022-08-19T14:35:14;16.90;90.50
60469;DHT22;46316;47.582;10.238;2022-08-19T14:37:41;16.80;90.50
60469;DHT22;46316;47.582;10.238;2022-08-19T14:40:08;16.80;90.30
60469;DHT22;46316;47.582;10.238;2022-08-19T14:42:34;16.90;90.40
60469;DHT22;46316;47.582;10.238;2022-08-19T14:45:00;16.90;90.50
60469;DHT22;46316;47.582;10.238;2022-08-19T14:47:26;16.80;90.70
60469;DHT22;46316;47.582;10.238;2022-08-19T14:49:52;16.80;90.30
60469;DHT22;46316;47.582;10.238;2022-08-19T14:52:18;16.80;89.90
60469;DHT22;46316;47.582;10.238;2022-08-19T14:54:43;16.70;90.10
60469;DHT22;46316;47.582;10.238;2022-08-19T14:57:12;16.70;90.50
60469;DHT22;46316;47.582;10.238;2022-08-19T14:59:38;16.70;90.70
60469;DHT22;46316;47.582;10.238;2022-08-19T15:02:03;16.70;90.70
60469;DHT22;46316;47.582;10.238;2022-08-19T15:04:29;16.80;90.80
60469;DHT22;46316;47.582;10.238;2022-08-19T15:06:55;16.80;90.70
60469;DHT22;46316;47.582;10.238;2022-08-19T15:09:20;16.70;90.80
60469;DHT22;46316;47.582;10.238;2022-08-19T15:11:47;16.80;90.70
60469;DHT22;46316;47.582;10.238;2022-08-19T15:14:15;16.90;90.70
60469;DHT22;46316;47.582;10.238;2022-08-19T15:16:42;16.90;90.50
60469;DHT22;46316;47.582;10.238;2022-08-19T15:19:08;16.90;90.30
60469;DHT22;46316;47.582;10.238;2022-08-19T15:21:34;16.90;90.30
60469;DHT22;46316;47.582;10.238;2022-08-19T15:24:01;16.90;90.20